Accueil
METAR-TAF:

METAR-TAF

Aéroports :

Rome-Fiumicino, Italie

Aéroport Léonard-de-Vinci de Rome Fiumicino

latitude: 41-48N, longitude: 012-14E, altitude: 2 m

Observation

Le bulletin a été fait il y a 21 minutes, à 18:20 UTC
Vent 8 kt de ouest/sud-ouest
Température 20°C
Humidité 78%
Pression 1018 hPa
Visibilité 10 km ou plus
Quelques nuages à une hauteur de 3000 ft

METAR: LIRF 231820Z 24008KT 9999 FEW030 20/16 Q1018 NOSIG

Heure: 20:41 (18:41 UTC)

Prévision

Le bulletin a été fait il y a 1 heure et 41 minutes, à 17:00 UTC
Prévision valable du 23 à 18 UTC au 24 à 24 UTC
Vent 5 kt de direction variable
Visibilité 10 km ou plus
Quelques nuages à une hauteur de 3000 ft
Evoluant progressivement
du 24 à 07 UTC au 24 à 09 UTC
Vent 12 kt de ouest
Evoluant progressivement
du 24 à 18 UTC au 24 à 20 UTC
Vent 5 kt de direction variable

TAF: LIRF 231700Z 2318/2424 VRB05KT 9999 FEW030 BECMG 2407/2409 26012KT BECMG 2418/2420 VRB05KT

Observations et prévisions météorologiques de plus de 4000 aéroports (messages METAR et TAF).

Les stations disponibles sont représentées par des disques jaunes et rouges sur la carte.

Passer la souris dessus pour voir le nom de la station.

Cliquer dessus pour voir les observations et prévisions météorologiques.

Pour changer de carte: cliquez sur les boutons verts avec une croix noire pour zoomer, sur le bouton vert avec un tiret pour effectuer un zoom arrière, ou sur les flèches vertes pour les cartes adjacentes.


METAR-TAF: